createdAt,value
2018-11-07T00:00:35.873Z,100514.16
2018-11-07T00:03:04.056Z,100511.36
2018-11-07T00:05:32.219Z,100508.91
2018-11-07T00:08:00.389Z,100514.91
2018-11-07T00:10:28.516Z,100516.42
2018-11-07T00:12:56.670Z,100514.83
2018-11-07T00:15:24.825Z,100520.07
2018-11-07T00:17:52.980Z,100526.30
2018-11-07T00:20:21.266Z,100522.67
2018-11-07T00:22:49.402Z,100511.48
2018-11-07T00:25:17.580Z,100510.61
2018-11-07T00:27:45.762Z,100512.19
2018-11-07T00:30:13.980Z,100516.97
2018-11-07T00:32:42.078Z,100515.59
2018-11-07T00:35:11.175Z,100514.30
2018-11-07T00:37:39.473Z,100516.50
2018-11-07T00:40:07.605Z,100503.42
2018-11-07T00:42:35.745Z,100504.80
2018-11-07T00:45:03.865Z,100508.17
2018-11-07T00:47:32.057Z,100506.76
2018-11-07T00:50:00.191Z,100503.69
2018-11-07T00:52:28.401Z,100500.70
2018-11-07T00:54:56.565Z,100499.39
2018-11-07T00:57:24.778Z,100490.75
2018-11-07T00:59:52.966Z,100486.91
2018-11-07T01:02:21.142Z,100486.39
2018-11-07T01:04:49.315Z,100477.88
2018-11-07T01:07:17.489Z,100483.28
2018-11-07T01:09:45.637Z,100482.76
2018-11-07T01:12:13.782Z,100484.64
2018-11-07T01:14:41.938Z,100482.49
2018-11-07T01:17:10.109Z,100475.98
2018-11-07T01:19:38.306Z,100479.25
2018-11-07T01:22:06.705Z,100472.67
2018-11-07T01:24:34.825Z,100466.78
2018-11-07T01:27:02.965Z,100457.07
2018-11-07T01:29:31.131Z,100457.07
2018-11-07T01:31:59.309Z,100457.59
2018-11-07T01:34:27.453Z,100456.38
2018-11-07T01:36:55.597Z,100453.25
2018-11-07T01:39:23.765Z,100459.17
2018-11-07T01:41:51.984Z,100461.34
2018-11-07T01:44:20.084Z,100452.77
2018-11-07T01:46:48.250Z,100440.33
2018-11-07T01:49:16.425Z,100428.93
2018-11-07T01:51:44.592Z,100424.20
2018-11-07T01:54:12.725Z,100418.91
2018-11-07T01:56:40.874Z,100423.45
2018-11-07T01:59:09.057Z,100420.33
2018-11-07T02:01:37.231Z,100421.68
2018-11-07T02:04:05.384Z,100419.15
2018-11-07T02:06:33.611Z,100419.45
2018-11-07T02:09:01.758Z,100425.16
2018-11-07T02:11:29.881Z,100423.75
2018-11-07T02:13:58.025Z,100422.78
2018-11-07T02:16:26.179Z,100413.35
2018-11-07T02:18:54.373Z,100407.89
2018-11-07T02:21:22.500Z,100400.26
2018-11-07T02:23:50.645Z,100396.72
2018-11-07T02:26:18.891Z,100404.39
2018-11-07T02:28:46.964Z,100399.62
2018-11-07T02:31:15.106Z,100398.92
2018-11-07T02:33:43.257Z,100404.98
2018-11-07T02:36:11.405Z,100400.06
2018-11-07T02:38:39.568Z,100401.50
2018-11-07T02:41:07.697Z,100402.73
2018-11-07T02:43:35.869Z,100411.20
2018-11-07T02:46:04.003Z,100433.05
2018-11-07T02:48:32.137Z,100416.30
2018-11-07T02:51:00.273Z,100426.78
2018-11-07T02:53:28.551Z,100419.05
2018-11-07T02:55:56.630Z,100412.64
2018-11-07T02:58:24.762Z,100410.23
2018-11-07T03:00:52.928Z,100410.92
2018-11-07T03:03:21.085Z,100408.98
2018-11-07T03:05:49.231Z,100413.20
2018-11-07T03:08:17.390Z,100407.50
2018-11-07T03:10:45.574Z,100402.59
2018-11-07T03:13:13.648Z,100407.73
2018-11-07T03:15:41.769Z,100407.65
2018-11-07T03:18:09.900Z,100408.50
2018-11-07T03:20:38.044Z,100410.48
2018-11-07T03:23:06.217Z,100408.95
2018-11-07T03:25:34.366Z,100402.02
2018-11-07T03:28:02.512Z,100401.47
2018-11-07T03:30:30.655Z,100402.78
2018-11-07T03:32:58.785Z,100407.50
2018-11-07T03:35:28.465Z,100402.81
2018-11-07T03:37:57.290Z,100416.95
2018-11-07T03:40:26.060Z,100421.94
2018-11-07T03:42:54.177Z,100416.95
2018-11-07T03:45:27.657Z,100417.88
2018-11-07T03:47:55.803Z,100421.56
2018-11-07T03:50:23.957Z,100420.95
2018-11-07T03:52:52.089Z,100422.70
2018-11-07T03:55:20.323Z,100424.67
2018-11-07T03:57:48.526Z,100425.82
2018-11-07T04:00:16.729Z,100416.92
2018-11-07T04:02:44.872Z,100425.89
2018-11-07T04:05:13.017Z,100427.13
2018-11-07T04:07:42.234Z,100427.00
2018-11-07T04:10:10.454Z,100437.42
2018-11-07T04:12:38.593Z,100437.19
2018-11-07T04:15:07.274Z,100443.70
2018-11-07T04:17:35.393Z,100441.79
2018-11-07T04:20:03.652Z,100442.78
2018-11-07T04:22:31.894Z,100445.70
2018-11-07T04:25:00.057Z,100453.82
2018-11-07T04:27:28.316Z,100447.37
2018-11-07T04:29:56.456Z,100452.77
2018-11-07T04:32:24.636Z,100448.06
2018-11-07T04:34:52.779Z,100438.03
2018-11-07T04:37:20.958Z,100434.68
2018-11-07T04:39:49.120Z,100438.81
2018-11-07T04:42:17.293Z,100434.91
2018-11-07T04:44:45.443Z,100440.73
2018-11-07T04:47:13.594Z,100436.44
2018-11-07T04:49:42.024Z,100434.68
2018-11-07T04:52:10.165Z,100435.82
2018-11-07T04:54:38.313Z,100445.84
2018-11-07T04:57:06.769Z,100450.61
2018-11-07T04:59:35.026Z,100442.33
2018-11-07T05:02:03.210Z,100439.36
2018-11-07T05:04:31.434Z,100444.86
2018-11-07T05:06:59.624Z,100435.59
2018-11-07T05:09:27.771Z,100432.91
2018-11-07T05:11:56.014Z,100434.22
2018-11-07T05:14:24.209Z,100443.87
2018-11-07T05:16:52.332Z,100439.73
2018-11-07T05:19:20.465Z,100450.28
2018-11-07T05:21:48.593Z,100439.33
2018-11-07T05:24:16.734Z,100442.94
2018-11-07T05:26:44.925Z,100434.66
2018-11-07T05:29:13.104Z,100438.11
2018-11-07T05:31:41.294Z,100438.30
2018-11-07T05:34:09.358Z,100439.71
2018-11-07T05:36:37.525Z,100444.08
2018-11-07T05:39:07.234Z,100452.50
2018-11-07T05:41:35.437Z,100454.20
2018-11-07T05:44:03.661Z,100455.22
2018-11-07T05:46:37.416Z,100446.30
2018-11-07T05:49:05.637Z,100444.22
2018-11-07T05:51:33.685Z,100439.16
2018-11-07T05:54:01.824Z,100435.23
2018-11-07T05:56:29.942Z,100434.58
2018-11-07T05:58:58.177Z,100443.83
2018-11-07T06:01:26.288Z,100450.35
2018-11-07T06:03:54.489Z,100446.96
2018-11-07T06:06:22.626Z,100451.25
2018-11-07T06:08:50.805Z,100449.55
2018-11-07T06:11:18.905Z,100454.84
2018-11-07T06:13:47.047Z,100458.36
2018-11-07T06:16:15.185Z,100453.97
2018-11-07T06:18:43.673Z,100458.68
2018-11-07T06:21:11.795Z,100471.83
2018-11-07T06:23:39.937Z,100484.72
2018-11-07T06:26:08.097Z,100482.35
2018-11-07T06:28:36.239Z,100469.55
2018-11-07T06:31:04.497Z,100465.42
2018-11-07T06:33:32.653Z,100469.80
2018-11-07T06:36:00.886Z,100476.52
2018-11-07T06:38:29.004Z,100477.81
2018-11-07T06:40:57.128Z,100472.75
2018-11-07T06:43:25.249Z,100478.59
2018-11-07T06:45:53.417Z,100478.13
2018-11-07T06:48:21.541Z,100481.80
2018-11-07T06:50:49.709Z,100492.66
2018-11-07T06:53:17.913Z,100500.80
2018-11-07T06:55:46.203Z,100494.67
2018-11-07T06:58:14.284Z,100504.45
2018-11-07T07:00:42.483Z,100510.05
2018-11-07T07:03:10.637Z,100514.72
2018-11-07T07:05:38.874Z,100518.84
2018-11-07T07:08:07.951Z,100511.28
2018-11-07T07:10:36.102Z,100521.45
2018-11-07T07:13:04.463Z,100506.59
2018-11-07T07:15:32.653Z,100507.27
2018-11-07T07:18:00.872Z,100511.70
2018-11-07T07:20:28.958Z,100516.52
2018-11-07T07:22:57.125Z,100517.68
2018-11-07T07:25:25.331Z,100519.58
2018-11-07T07:27:53.441Z,100515.14
2018-11-07T07:30:22.262Z,100525.83
2018-11-07T07:32:50.842Z,100531.66
2018-11-07T07:35:19.098Z,100534.29
2018-11-07T07:37:47.255Z,100530.62
2018-11-07T07:40:16.270Z,100528.48
2018-11-07T07:42:45.195Z,100527.09
2018-11-07T07:45:15.305Z,100532.90
2018-11-07T07:47:44.107Z,100535.64
2018-11-07T07:50:13.394Z,100537.97
2018-11-07T07:52:42.187Z,100529.78
2018-11-07T07:55:10.574Z,100541.11
2018-11-07T07:57:39.471Z,100545.78
2018-11-07T08:00:15.340Z,100540.90
2018-11-07T08:02:46.190Z,100544.30
2018-11-07T08:05:14.328Z,100543.69
2018-11-07T08:07:42.709Z,100543.76
2018-11-07T08:10:17.268Z,100543.30
2018-11-07T08:12:45.973Z,100546.22
2018-11-07T08:15:14.687Z,100553.40
2018-11-07T08:17:43.551Z,100554.31
2018-11-07T08:20:12.734Z,100558.22
2018-11-07T08:22:41.134Z,100563.28
2018-11-07T08:25:09.274Z,100558.33
2018-11-07T08:27:37.391Z,100553.13
2018-11-07T08:30:08.165Z,100554.73
2018-11-07T08:32:36.274Z,100555.40
2018-11-07T08:35:04.673Z,100550.15
2018-11-07T08:37:32.848Z,100544.98
2018-11-07T08:40:00.989Z,100548.23
2018-11-07T08:42:29.289Z,100552.63
2018-11-07T08:44:57.313Z,100547.55
2018-11-07T08:47:25.487Z,100550.52
2018-11-07T08:49:53.645Z,100554.07
2018-11-07T08:52:21.801Z,100558.35
2018-11-07T08:54:49.956Z,100548.30
2018-11-07T08:57:18.050Z,100566.95
2018-11-07T08:59:46.202Z,100559.27
2018-11-07T09:02:14.386Z,100558.45
2018-11-07T09:04:42.518Z,100556.21
2018-11-07T09:07:10.680Z,100562.14
2018-11-07T09:09:38.853Z,100567.41
2018-11-07T09:12:07.170Z,100576.46
2018-11-07T09:14:35.302Z,100582.39
2018-11-07T09:17:03.487Z,100579.72
2018-11-07T09:19:31.649Z,100580.30
2018-11-07T09:21:59.781Z,100573.08
2018-11-07T09:24:27.988Z,100571.27
2018-11-07T09:26:56.090Z,100568.80
2018-11-07T09:29:24.358Z,100577.09
2018-11-07T09:31:52.433Z,100588.42
2018-11-07T09:34:20.776Z,100610.98
2018-11-07T09:36:48.909Z,100609.13
2018-11-07T09:39:17.053Z,100607.20
2018-11-07T09:41:45.226Z,100603.41
2018-11-07T09:44:13.374Z,100600.56
2018-11-07T09:46:41.584Z,100599.05
2018-11-07T09:49:09.717Z,100607.29
2018-11-07T09:51:37.875Z,100610.75
2018-11-07T09:54:06.064Z,100612.67
2018-11-07T09:56:34.175Z,100608.82
2018-11-07T09:59:02.351Z,100617.32
2018-11-07T10:01:30.501Z,100616.11
2018-11-07T10:03:58.706Z,100602.73
2018-11-07T10:06:26.862Z,100601.22
2018-11-07T10:08:55.031Z,100601.97
2018-11-07T10:11:23.162Z,100601.16
2018-11-07T10:13:51.344Z,100606.42
2018-11-07T10:16:19.465Z,100602.05
2018-11-07T10:18:47.622Z,100601.88
2018-11-07T10:21:15.783Z,100596.91
2018-11-07T10:23:43.951Z,100599.73
2018-11-07T10:26:12.114Z,100601.87
2018-11-07T10:28:40.379Z,100599.73
2018-11-07T10:31:08.456Z,100595.98
2018-11-07T10:33:36.615Z,100593.19
2018-11-07T10:36:04.752Z,100588.98
2018-11-07T10:38:32.977Z,100591.12
2018-11-07T10:41:01.049Z,100593.08
2018-11-07T10:43:29.217Z,100594.82
2018-11-07T10:45:57.392Z,100590.88
2018-11-07T10:48:25.521Z,100589.06
2018-11-07T10:50:53.645Z,100595.70
2018-11-07T10:53:21.806Z,100592.69
2018-11-07T10:55:49.949Z,100589.53
2018-11-07T10:58:18.108Z,100589.36
2018-11-07T11:00:51.563Z,100588.22
2018-11-07T11:03:24.993Z,100589.74
2018-11-07T11:05:53.175Z,100590.02
2018-11-07T11:08:21.354Z,100592.81
2018-11-07T11:10:49.479Z,100592.27
2018-11-07T11:13:17.630Z,100599.67
2018-11-07T11:15:45.805Z,100612.32
2018-11-07T11:18:13.938Z,100618.86
2018-11-07T11:20:42.103Z,100623.17
2018-11-07T11:23:10.237Z,100623.14
2018-11-07T11:25:38.483Z,100623.72
2018-11-07T11:28:06.625Z,100626.34
2018-11-07T11:30:34.746Z,100633.68
2018-11-07T11:33:02.924Z,100635.84
2018-11-07T11:35:31.066Z,100636.98
2018-11-07T11:37:59.232Z,100631.59
2018-11-07T11:40:27.351Z,100640.10
2018-11-07T11:42:55.499Z,100634.63
2018-11-07T11:45:23.657Z,100634.30
2018-11-07T11:47:51.783Z,100629.76
2018-11-07T11:50:20.877Z,100629.69
2018-11-07T11:52:49.577Z,100628.41
2018-11-07T11:55:17.761Z,100636.63
2018-11-07T11:57:46.458Z,100637.29
2018-11-07T12:00:16.290Z,100629.34
2018-11-07T12:02:44.955Z,100626.98
2018-11-07T12:05:14.048Z,100627.73
2018-11-07T12:07:42.425Z,100628.99
2018-11-07T12:10:17.153Z,100631.15
2018-11-07T12:12:49.314Z,100630.11
2018-11-07T12:15:18.614Z,100624.31
2018-11-07T12:17:46.756Z,100627.78
2018-11-07T12:20:14.837Z,100627.41
2018-11-07T12:22:43.028Z,100625.26
2018-11-07T12:25:12.377Z,100630.52
2018-11-07T12:27:40.967Z,100624.63
2018-11-07T12:30:10.978Z,100625.30
2018-11-07T12:32:39.116Z,100636.20
2018-11-07T12:35:07.314Z,100633.06
2018-11-07T12:37:35.458Z,100630.72
2018-11-07T12:40:03.594Z,100633.06
2018-11-07T12:42:31.709Z,100640.52
2018-11-07T12:44:59.938Z,100640.27
2018-11-07T12:47:28.058Z,100635.08
2018-11-07T12:49:56.265Z,100633.84
2018-11-07T12:52:24.311Z,100635.11
2018-11-07T12:54:52.444Z,100632.07
2018-11-07T12:57:20.729Z,100622.31
2018-11-07T12:59:48.758Z,100630.98
2018-11-07T13:02:16.917Z,100636.69
2018-11-07T13:04:45.199Z,100630.84
2018-11-07T13:07:13.242Z,100626.02
2018-11-07T13:09:42.369Z,100627.98
2018-11-07T13:12:10.540Z,100629.05
2018-11-07T13:14:38.669Z,100630.47
2018-11-07T13:17:06.826Z,100627.55
2018-11-07T13:19:34.973Z,100632.63
2018-11-07T13:22:03.121Z,100638.36
2018-11-07T13:24:31.347Z,100634.38
2018-11-07T13:26:59.516Z,100624.39
2018-11-07T13:29:27.649Z,100625.58
2018-11-07T13:31:55.797Z,100626.41
2018-11-07T13:34:24.011Z,100627.84
2018-11-07T13:36:52.181Z,100630.43
2018-11-07T13:39:20.642Z,100626.89
2018-11-07T13:41:48.389Z,100627.18
2018-11-07T13:44:16.577Z,100627.03
2018-11-07T13:46:44.730Z,100619.39
2018-11-07T13:49:12.901Z,100627.11
2018-11-07T13:51:41.035Z,100626.38
2018-11-07T13:54:09.163Z,100631.90
2018-11-07T13:56:37.311Z,100634.90
2018-11-07T13:59:05.881Z,100636.91
2018-11-07T14:01:34.027Z,100639.80
2018-11-07T14:04:02.313Z,100630.58
2018-11-07T14:06:30.470Z,100626.56
2018-11-07T14:08:58.625Z,100635.33
2018-11-07T14:11:26.802Z,100632.95
2018-11-07T14:13:54.944Z,100633.55
2018-11-07T14:16:23.152Z,100631.78
2018-11-07T14:18:51.166Z,100636.47
2018-11-07T14:21:19.310Z,100638.73
2018-11-07T14:23:47.435Z,100637.00
2018-11-07T14:26:15.584Z,100633.47
2018-11-07T14:28:43.732Z,100644.11
2018-11-07T14:31:11.852Z,100644.25
2018-11-07T14:33:40.055Z,100644.68
2018-11-07T14:36:08.174Z,100650.87
2018-11-07T14:38:36.365Z,100644.25
2018-11-07T14:41:04.438Z,100637.67
2018-11-07T14:43:32.595Z,100647.40
2018-11-07T14:46:00.779Z,100647.66
2018-11-07T14:48:28.862Z,100651.50
2018-11-07T14:50:57.018Z,100656.81
2018-11-07T14:53:25.226Z,100654.66
2018-11-07T14:55:53.325Z,100658.45
2018-11-07T14:58:21.582Z,100659.79
2018-11-07T15:00:49.737Z,100660.68
2018-11-07T15:03:17.872Z,100656.76
2018-11-07T15:05:46.189Z,100657.17
2018-11-07T15:08:14.258Z,100661.11
2018-11-07T15:10:42.309Z,100663.08
2018-11-07T15:13:10.431Z,100664.52
2018-11-07T15:15:38.553Z,100662.16
2018-11-07T15:18:06.652Z,100668.37
2018-11-07T15:20:34.802Z,100669.23
2018-11-07T15:23:02.930Z,100672.73
2018-11-07T15:25:31.092Z,100676.16
2018-11-07T15:27:59.257Z,100679.66
2018-11-07T15:30:27.410Z,100683.86
2018-11-07T15:32:55.586Z,100687.11
2018-11-07T15:35:23.740Z,100691.49
2018-11-07T15:37:51.910Z,100692.45
2018-11-07T15:40:20.037Z,100692.11
2018-11-07T15:42:48.159Z,100698.58
2018-11-07T15:45:17.562Z,100702.70
2018-11-07T15:47:45.949Z,100702.65
2018-11-07T15:50:19.395Z,100706.52
2018-11-07T15:52:48.132Z,100709.22
2018-11-07T15:55:16.227Z,100710.43
2018-11-07T15:57:44.487Z,100718.98
2018-11-07T16:00:14.430Z,100723.47
2018-11-07T16:02:42.965Z,100727.91
2018-11-07T16:05:12.664Z,100722.34
2018-11-07T16:07:40.905Z,100728.69
2018-11-07T16:10:10.464Z,100731.86
2018-11-07T16:12:39.001Z,100728.82
2018-11-07T16:15:08.506Z,100728.59
2018-11-07T16:17:36.614Z,100730.36
2018-11-07T16:20:06.006Z,100733.45
2018-11-07T16:22:34.173Z,100733.33
2018-11-07T16:25:02.317Z,100738.07
2018-11-07T16:27:30.506Z,100743.23
2018-11-07T16:29:58.669Z,100740.81
2018-11-07T16:32:26.821Z,100744.33
2018-11-07T16:34:54.980Z,100743.95
2018-11-07T16:37:23.106Z,100745.27
2018-11-07T16:39:51.248Z,100747.62
2018-11-07T16:42:19.390Z,100748.52
2018-11-07T16:44:47.529Z,100753.67
2018-11-07T16:47:15.706Z,100754.33
2018-11-07T16:49:43.837Z,100759.38
2018-11-07T16:52:11.972Z,100755.47
2018-11-07T16:54:40.089Z,100755.94
2018-11-07T16:57:08.205Z,100761.72
2018-11-07T16:59:36.361Z,100764.55
2018-11-07T17:02:04.622Z,100764.34
2018-11-07T17:04:32.920Z,100772.75
2018-11-07T17:07:01.132Z,100775.84
2018-11-07T17:09:29.286Z,100777.62
2018-11-07T17:11:57.418Z,100780.45
2018-11-07T17:14:25.548Z,100783.16
2018-11-07T17:16:53.699Z,100777.42
2018-11-07T17:19:21.802Z,100775.06
2018-11-07T17:21:49.963Z,100783.59
2018-11-07T17:24:18.217Z,100784.95
2018-11-07T17:26:46.337Z,100791.56
2018-11-07T17:29:14.466Z,100791.82
2018-11-07T17:31:42.742Z,100788.48
2018-11-07T17:34:16.395Z,100785.02
2018-11-07T17:36:44.545Z,100796.63
2018-11-07T17:39:12.697Z,100802.21
2018-11-07T17:45:02.507Z,100803.18
2018-11-07T17:47:30.649Z,100807.70
2018-11-07T17:49:58.765Z,100803.14
2018-11-07T17:52:26.885Z,100805.20
2018-11-07T17:54:54.991Z,100813.44
2018-11-07T17:57:23.112Z,100809.52
2018-11-07T17:59:51.226Z,100806.34
2018-11-07T18:02:19.324Z,100807.65
2018-11-07T18:04:47.431Z,100809.50
2018-11-07T18:07:15.626Z,100811.28
2018-11-07T18:09:43.845Z,100815.28
2018-11-07T18:12:11.932Z,100808.99
2018-11-07T18:14:40.075Z,100813.22
2018-11-07T18:17:08.210Z,100812.30
2018-11-07T18:19:36.388Z,100810.48
2018-11-07T18:22:04.627Z,100810.36
2018-11-07T18:24:32.784Z,100815.08
2018-11-07T18:27:00.940Z,100817.52
2018-11-07T18:29:29.155Z,100815.86
2018-11-07T18:31:57.316Z,100819.28
2018-11-07T18:34:25.451Z,100818.80
2018-11-07T18:36:53.621Z,100825.52
2018-11-07T18:39:21.773Z,100822.88
2018-11-07T18:41:50.684Z,100837.41
2018-11-07T18:44:18.915Z,100831.26
2018-11-07T18:46:47.107Z,100834.11
2018-11-07T18:49:15.180Z,100833.55
2018-11-07T18:51:43.286Z,100834.89
2018-11-07T18:54:11.405Z,100833.41
2018-11-07T18:56:39.764Z,100834.02
2018-11-07T18:59:07.937Z,100839.27
2018-11-07T19:01:36.036Z,100842.11
2018-11-07T19:04:04.189Z,100844.88
2018-11-07T19:06:32.396Z,100839.97
2018-11-07T19:09:00.473Z,100848.66
2018-11-07T19:11:28.660Z,100847.02
2018-11-07T19:13:56.804Z,100846.42
2018-11-07T19:16:24.891Z,100845.82
2018-11-07T19:18:53.030Z,100848.41
2018-11-07T19:21:21.244Z,100844.29
2018-11-07T19:23:49.384Z,100840.41
2018-11-07T19:26:17.516Z,100840.14
2018-11-07T19:28:45.654Z,100845.34
2018-11-07T19:31:13.769Z,100846.51
2018-11-07T19:38:42.251Z,100857.67
2018-11-07T19:41:10.430Z,100856.33
2018-11-07T19:43:38.528Z,100861.21
2018-11-07T19:46:06.652Z,100867.95
2018-11-07T19:48:34.820Z,100866.33
2018-11-07T19:51:02.961Z,100866.25
2018-11-07T19:53:31.097Z,100869.74
2018-11-07T19:55:59.203Z,100874.29
2018-11-07T19:58:27.335Z,100880.18
2018-11-07T20:00:55.525Z,100879.17
2018-11-07T20:03:23.610Z,100876.79
2018-11-07T20:05:51.781Z,100886.97
2018-11-07T20:08:19.936Z,100884.20
2018-11-07T20:10:48.237Z,100886.19
2018-11-07T20:13:16.379Z,100890.88
2018-11-07T20:15:44.511Z,100902.00
2018-11-07T20:18:12.743Z,100902.05
2018-11-07T20:20:40.890Z,100913.21
2018-11-07T20:23:09.062Z,100920.59
2018-11-07T20:25:37.178Z,100918.17
2018-11-07T20:28:05.696Z,100922.79
2018-11-07T20:30:33.839Z,100920.25
2018-11-07T20:33:02.006Z,100927.25
2018-11-07T20:35:30.204Z,100929.63
2018-11-07T20:37:58.276Z,100935.06
2018-11-07T20:40:26.419Z,100926.87
2018-11-07T20:42:54.560Z,100920.71
2018-11-07T20:45:22.710Z,100927.71
2018-11-07T20:47:50.817Z,100939.17
2018-11-07T20:50:20.175Z,100943.13
2018-11-07T20:52:48.581Z,100949.80
2018-11-07T20:55:17.032Z,100946.36
2018-11-07T20:57:45.142Z,100945.03
2018-11-07T21:00:16.661Z,100949.88
2018-11-07T21:02:45.258Z,100952.39
2018-11-07T21:05:13.449Z,100955.47
2018-11-07T21:07:42.030Z,100956.82
2018-11-07T21:15:00.992Z,100959.83
2018-11-07T21:17:29.098Z,100963.19
2018-11-07T21:19:57.245Z,100968.23
2018-11-07T21:22:25.385Z,100968.16
2018-11-07T21:24:53.544Z,100971.94
2018-11-07T21:27:21.690Z,100973.84
2018-11-07T21:29:49.849Z,100973.46
2018-11-07T21:32:17.992Z,100965.94
2018-11-07T21:34:46.109Z,100967.92
2018-11-07T21:37:14.185Z,100978.02
2018-11-07T21:39:42.284Z,100977.27
2018-11-07T21:42:10.463Z,100980.94
2018-11-07T21:44:38.569Z,100972.19
2018-11-07T21:47:06.775Z,100974.55
2018-11-07T21:49:34.880Z,100980.27
2018-11-07T21:52:02.965Z,100977.16
2018-11-07T21:54:31.081Z,100977.16
2018-11-07T21:57:05.847Z,100981.30
2018-11-07T21:59:33.935Z,100980.77
2018-11-07T22:02:02.159Z,100982.03
2018-11-07T22:04:30.267Z,100983.86
2018-11-07T22:06:58.391Z,100989.42
2018-11-07T22:09:26.492Z,100985.61
2018-11-07T22:11:54.624Z,100981.59
2018-11-07T22:14:22.758Z,100986.27
2018-11-07T22:16:50.886Z,101000.17
2018-11-07T22:19:19.028Z,100992.48
2018-11-07T22:21:47.134Z,100999.76
2018-11-07T22:24:15.286Z,101001.45
2018-11-07T22:26:43.324Z,101002.33
2018-11-07T22:29:11.456Z,101003.23
2018-11-07T22:31:39.597Z,101007.86
2018-11-07T22:34:07.701Z,101006.06
2018-11-07T22:36:35.823Z,101001.74
2018-11-07T22:39:04.669Z,101006.63
2018-11-07T22:41:32.839Z,101007.48
2018-11-07T22:44:00.978Z,101010.41
2018-11-07T22:46:29.074Z,101009.95
2018-11-07T22:48:57.177Z,101013.73
2018-11-07T22:51:25.292Z,101014.25
2018-11-07T22:53:53.984Z,101013.19
2018-11-07T22:56:22.104Z,101019.70
2018-11-07T22:58:50.257Z,101022.25
2018-11-07T23:01:23.411Z,101028.61
2018-11-07T23:03:52.624Z,101034.55
2018-11-07T23:06:20.732Z,101026.42
2018-11-07T23:08:48.881Z,101032.71
2018-11-07T23:11:16.979Z,101041.09
2018-11-07T23:13:45.065Z,101038.43
2018-11-07T23:16:13.167Z,101045.45
2018-11-07T23:18:41.302Z,101046.11
2018-11-07T23:21:09.423Z,101044.87
2018-11-07T23:23:37.539Z,101047.78
2018-11-07T23:26:05.709Z,101046.12
2018-11-07T23:28:33.812Z,101046.97
2018-11-07T23:31:01.921Z,101046.06
2018-11-07T23:33:30.000Z,101047.88
2018-11-07T23:35:58.128Z,101049.69
2018-11-07T23:38:26.270Z,101050.08
2018-11-07T23:40:54.380Z,101054.44
2018-11-07T23:43:22.460Z,101058.06
2018-11-07T23:45:50.583Z,101057.04
2018-11-07T23:48:18.761Z,101058.14
2018-11-07T23:50:46.872Z,101057.12
2018-11-07T23:53:14.986Z,101057.52
2018-11-07T23:55:44.125Z,101054.52
2018-11-07T23:58:12.347Z,101056.16
